CoUP De Foudre — 2JDZ3 — position and weather

sailwx.info

Track history (hours):
 
Tides and Currents Weather Stations Pressure Air Temp Water Temp Dewpoint Dewpoint Depression Visibility Wind Speed Wind Dir Waves Ship Positions

CoUP De Foudre

Last reported at 2018-Apr-23 09:11 UTC. Time now 2018-Apr-26 11:45 UTC.
Position N 38°19' E 015°35'.

Length 18 m.

Type: Sailing vessel. MMSI: 235115129.

Date/timePositionNaut miles runAvg speedWind from/ knotsBaromVisibWave heightAir tempDewpointWater temp
2018-Apr-23 09:11N 38°19' E 015°35'2 7.2
2018-Apr-23 08:57N 38°19' E 015°33'4 7.3
2018-Apr-23 08:26N 38°18' E 015°28'3 7.4
2018-Apr-23 08:00N 38°16' E 015°25'4 7.3
2018-Apr-23 07:30N 38°15' E 015°20'4 7.4
2018-Apr-23 07:00N 38°13' E 015°16'1 0.1
2018-Apr-22 14:17N 38°13' E 015°15'0 0.0
2018-Apr-22 13:59N 38°13' E 015°15'2 3.2
2018-Apr-22 13:30N 38°15' E 015°16'4 5.5
2018-Apr-22 12:45N 38°18' E 015°12'  
2018-Apr-16 12:50N 38°05' E 013°45'3 6.2
2018-Apr-16 12:25N 38°06' E 013°42'3 7.3
2018-Apr-16 12:00N 38°06' E 013°38'4 7.5
2018-Apr-16 11:30N 38°07' E 013°33'4 7.5
2018-Apr-16 11:00N 38°08' E 013°29'4 6.8
2018-Apr-16 10:27N 38°07' E 013°24'1 2.8
2018-Apr-16 09:59N 38°07' E 013°22'0 0.0
2018-Apr-16 09:26N 38°07' E 013°22'0 0.0
2018-Apr-15 10:53N 38°07' E 013°22'0 0.1
2018-Apr-15 10:30N 38°07' E 013°22'0 0.9
2018-Apr-15 10:00N 38°07' E 013°23'4 6.9
2018-Apr-15 09:29N 38°11' E 013°22'4 7.5
2018-Apr-15 08:57N 38°14' E 013°19'3 7.6
2018-Apr-15 08:30N 38°13' E 013°15'  
Track history (hours):
 
Tides and Currents Weather Stations Pressure Air Temp Water Temp Dewpoint Dewpoint Depression Visibility Wind Speed Wind Dir Waves Ship Positions

CoUP De Foudre

Last reported at 2018-Apr-23 09:11 UTC. Time now 2018-Apr-26 11:45 UTC.
Position N 38°19' E 015°35'.

Length 18 m.

Type: Sailing vessel. MMSI: 235115129.

Date/timePositionNaut miles runAvg speedWind from/ knotsBaromVisibWave heightAir tempDewpointWater temp
2018-Apr-23 09:11N 38°19' E 015°35'2 7.2
2018-Apr-23 08:57N 38°19' E 015°33'4 7.3
2018-Apr-23 08:26N 38°18' E 015°28'3 7.4
2018-Apr-23 08:00N 38°16' E 015°25'4 7.3
2018-Apr-23 07:30N 38°15' E 015°20'4 7.4
2018-Apr-23 07:00N 38°13' E 015°16'1 0.1
2018-Apr-22 14:17N 38°13' E 015°15'0 0.0
2018-Apr-22 13:59N 38°13' E 015°15'2 3.2
2018-Apr-22 13:30N 38°15' E 015°16'4 5.5
2018-Apr-22 12:45N 38°18' E 015°12'  
2018-Apr-16 12:50N 38°05' E 013°45'3 6.2
2018-Apr-16 12:25N 38°06' E 013°42'3 7.3
2018-Apr-16 12:00N 38°06' E 013°38'4 7.5
2018-Apr-16 11:30N 38°07' E 013°33'4 7.5
2018-Apr-16 11:00N 38°08' E 013°29'4 6.8
2018-Apr-16 10:27N 38°07' E 013°24'1 2.8
2018-Apr-16 09:59N 38°07' E 013°22'0 0.0
2018-Apr-16 09:26N 38°07' E 013°22'0 0.0
2018-Apr-15 10:53N 38°07' E 013°22'0 0.1
2018-Apr-15 10:30N 38°07' E 013°22'0 0.9
2018-Apr-15 10:00N 38°07' E 013°23'4 6.9
2018-Apr-15 09:29N 38°11' E 013°22'4 7.5
2018-Apr-15 08:57N 38°14' E 013°19'3 7.6
2018-Apr-15 08:30N 38°13' E 013°15'  

Dump ship's entire track history